Decoded Metar for KDDH (BENNINGTON in VT, USA) (IATA:DDH) | Meteo·Mobile Aviation Weather
aviador You're here:

KDDH Decoded Metar

BENNINGTON in VT, USA
Report Time2019-05-25 22:54:00
UTC Time2019-05-25 23:52:13
Flight Rules vfr VFR
Wind190° at 07 kt
W.Decomp.*RWY 13: 1.9 kt HW 6.7 kt RCW
Visibility9999 m
Phenomena:N/A
Clouds:Overcast 070 Hf
Expected CloudBase > 3,600 ft AGL from Temp-Dew spread
Ceiling7,000 ft
Temp20°C (ISA +7)
Dew Point11°C (56% RH)
AAT17.8°C
QNH1017 hPa
Density Alt1,617 ft
Elevation801 ft
Report Wrong Elevation
Raw Report
KDDH 252254Z AUTO 19007KT 10SM OVC070 20/11 A3002 RMK AO2 SLP164
T02000111=

Extra information for KDDH:More info

Metar Taf Metar & Taf Last 4 Metars F.Rules Stats Wind Profile Meteogram Temp Stats Airport Information Weather charts Add Link Nearby VenuesMetar ALERT Operation Metar Decoded Social comments

AIRNAV info for KDDH